Time;durP1;ratioP1;P1;durP2;ratioP2;P2;SDS_P1;SDS_P2;PMS_P1;PMS_P2;Temp;Humidity;BMP_temperature;BMP_pressure;BME280_temperature;BME280_humidity;BME280_pressure;Samples;Min_cycle;Max_cycle;Signal;HPM_P1;HPM_P2
2022/05/13 00:01:24;;;;;;;3.50;1.70;;;;;;;20.60;43.92;100829.06;4157774;28;20125;-67
2022/05/13 00:03:27;;;;;;;5.00;1.92;;;;;;;20.52;44.11;100821.31;4162010;28;20491;-67
2022/05/13 00:05:30;;;;;;;8.27;1.85;;;;;;;20.46;44.37;100822.31;4158375;28;20072;-66
2022/05/13 00:07:35;;;;;;;6.18;1.60;;;;;;;20.42;44.58;100823.25;4159272;28;20456;-67
2022/05/13 00:11:58;;;;;;;5.20;1.80;;;;;;;20.38;44.50;100827.75;4160200;28;20399;-67
2022/05/13 00:14:01;;;;;;;4.82;1.50;;;;;;;20.42;44.58;100822.41;4152577;28;20061;-67
2022/05/13 00:16:05;;;;;;;6.85;1.90;;;;;;;20.38;44.22;100826.84;4160282;28;20041;-67
2022/05/13 00:18:08;;;;;;;6.40;1.55;;;;;;;20.32;44.57;100832.28;4162424;28;20136;-67
2022/05/13 00:20:12;;;;;;;5.97;2.10;;;;;;;20.37;44.56;100817.19;4157350;28;20037;-67
2022/05/13 00:22:18;;;;;;;6.85;2.10;;;;;;;20.38;44.70;100816.28;4162222;28;20034;-67
2022/05/13 00:24:27;;;;;;;5.60;1.75;;;;;;;20.40;44.71;100811.88;4152522;28;20044;-67
2022/05/13 00:26:30;;;;;;;7.57;1.75;;;;;;;20.36;44.71;100818.13;4159819;28;20042;-67
2022/05/13 00:28:33;;;;;;;4.82;1.70;;;;;;;20.34;44.95;100817.25;4164626;28;20069;-67
2022/05/13 00:30:38;;;;;;;5.95;1.85;;;;;;;20.29;44.91;100821.78;4165882;28;20045;-68
2022/05/13 00:32:41;;;;;;;7.15;1.90;;;;;;;20.23;45.05;100820.97;4161016;28;20040;-67
2022/05/13 00:34:44;;;;;;;4.85;1.83;;;;;;;20.18;45.38;100819.34;4161514;28;20483;-67
2022/05/13 00:36:48;;;;;;;3.85;1.52;;;;;;;20.17;45.19;100818.47;4162252;28;20083;-68
2022/05/13 00:38:58;;;;;;;5.00;1.67;;;;;;;20.14;45.31;100820.31;4157215;28;20038;-67
2022/05/13 00:41:02;;;;;;;8.07;2.53;;;;;;;20.15;45.57;100817.66;4165825;28;20039;-67
2022/05/13 00:43:07;;;;;;;8.60;2.05;;;;;;;20.17;45.26;100820.25;4157591;28;20684;-67
2022/05/13 00:45:13;;;;;;;4.55;1.83;;;;;;;20.17;45.32;100821.13;4160493;28;20043;-67
2022/05/13 00:47:16;;;;;;;4.65;1.77;;;;;;;20.12;45.70;100812.44;4165606;28;20046;-67
2022/05/13 00:49:19;;;;;;;4.25;2.03;;;;;;;20.17;45.27;100822.91;4157325;28;20041;-67
2022/05/13 00:51:28;;;;;;;5.38;1.45;;;;;;;20.17;45.27;100821.13;4145098;28;20506;-68
2022/05/13 00:53:31;;;;;;;4.70;1.70;;;;;;;20.18;45.38;100828.16;4164594;28;20045;-67
2022/05/13 00:55:37;;;;;;;4.07;1.60;;;;;;;20.14;45.49;100815.03;4160812;28;20041;-68
2022/05/13 00:57:42;;;;;;;5.10;1.70;;;;;;;20.11;45.51;100815.97;4162938;28;20049;-68
2022/05/13 00:59:46;;;;;;;6.82;1.58;;;;;;;19.95;46.19;100820.66;4165732;28;20052;-68
2022/05/13 01:01:49;;;;;;;;;;;;;;;19.69;46.19;100829.03;4163509;28;20037;-68
2022/05/13 01:03:53;;;;;;;5.72;1.73;;;;;;;19.70;46.43;100825.50;4162018;28;19921;-68
2022/05/13 01:06:01;;;;;;;7.35;1.52;;;;;;;19.69;46.69;100829.03;4162517;28;20376;-68
2022/05/13 01:08:07;;;;;;;9.93;1.58;;;;;;;19.69;46.18;100826.38;4159584;28;20510;-68
2022/05/13 01:10:16;;;;;;;4.78;1.58;;;;;;;19.66;46.21;100821.16;4165162;28;20573;-68
2022/05/13 01:12:23;;;;;;;4.00;1.48;;;;;;;19.65;46.52;100817.63;4161454;28;20041;-68
2022/05/13 01:14:34;;;;;;;5.90;1.65;;;;;;;19.67;46.24;100815.00;4160703;28;20042;-68
2022/05/13 01:18:54;;;;;;;6.63;1.65;;;;;;;19.68;46.67;100824.63;4160882;28;20073;-68
2022/05/13 01:20:57;;;;;;;2.63;1.25;;;;;;;19.80;46.64;100826.22;4161690;28;20041;-68
2022/05/13 01:23:04;;;;;;;7.13;1.90;;;;;;;19.82;47.30;100819.16;4162880;28;20033;-68
2022/05/13 01:25:08;;;;;;;4.80;1.80;;;;;;;19.77;46.56;100820.97;4163330;28;20128;-68
2022/05/13 01:27:10;;;;;;;7.10;2.38;;;;;;;19.69;47.03;100829.03;4163611;28;20156;-68
2022/05/13 01:29:13;;;;;;;6.93;1.70;;;;;;;19.57;47.18;100830.09;4155823;28;20042;-68
2022/05/13 01:31:23;;;;;;;4.72;1.80;;;;;;;19.61;47.04;100823.00;4159145;28;20105;-68
2022/05/13 01:33:27;;;;;;;8.20;1.88;;;;;;;19.62;47.33;100819.47;4156268;28;20072;-68
2022/05/13 01:35:30;;;;;;;6.45;1.90;;;;;;;19.63;47.34;100814.16;4162866;28;20030;-68
2022/05/13 01:37:33;;;;;;;5.47;2.03;;;;;;;19.60;47.47;100808.97;4160558;28;20125;-68
2022/05/13 01:39:38;;;;;;;3.60;1.45;;;;;;;19.59;47.67;100815.13;4159243;28;20388;-68
2022/05/13 01:41:40;;;;;;;5.90;2.10;;;;;;;19.46;47.76;100816.22;4158923;28;20116;-68
2022/05/13 01:43:45;;;;;;;6.40;2.17;;;;;;;19.44;48.29;100815.41;4158977;28;20128;-68
2022/05/13 01:45:49;;;;;;;5.38;2.05;;;;;;;19.35;48.09;100817.28;4159334;28;20037;-68
2022/05/13 01:47:52;;;;;;;5.22;1.90;;;;;;;19.26;48.16;100819.19;4158191;28;20037;-68
2022/05/13 01:49:54;;;;;;;6.05;1.90;;;;;;;19.19;48.34;100819.28;4162747;28;20527;-68
2022/05/13 01:51:57;;;;;;;6.85;2.22;;;;;;;19.17;48.29;100823.72;4162316;28;20614;-68
2022/05/13 01:54:00;;;;;;;4.70;1.90;;;;;;;19.16;48.62;100815.84;4161203;28;20044;-68
2022/05/13 01:56:05;;;;;;;7.18;1.70;;;;;;;19.19;49.86;100811.38;4163053;28;20132;-68
2022/05/13 01:58:09;;;;;;;5.80;1.70;;;;;;;19.26;50.03;100817.44;4159975;28;20037;-68
2022/05/13 02:00:14;;;;;;;4.63;1.90;;;;;;;19.23;49.18;100813.97;4161785;28;20060;-68
2022/05/13 02:02:17;;;;;;;4.25;1.88;;;;;;;19.22;50.65;100818.38;4161240;28;20044;-68
2022/05/13 02:04:19;;;;;;;9.35;2.13;;;;;;;19.29;50.53;100819.13;4147422;28;20081;-68
2022/05/13 02:06:24;;;;;;;5.25;2.10;;;;;;;19.31;50.82;100806.81;4155202;28;20037;-68
2022/05/13 02:08:27;;;;;;;4.50;1.52;;;;;;;19.27;50.54;100803.34;4161726;28;20037;-68
2022/05/13 02:10:30;;;;;;;4.95;1.90;;;;;;;19.25;50.58;100810.41;4163646;28;20045;-68
2022/05/13 02:12:34;;;;;;;5.18;1.73;;;;;;;19.19;50.24;100806.13;4157218;28;20402;-68
2022/05/13 02:14:37;;;;;;;5.80;2.00;;;;;;;19.14;50.43;100800.06;4163147;28;20069;-68
2022/05/13 02:16:40;;;;;;;10.18;2.88;;;;;;;19.15;50.68;100800.91;4156482;28;20048;-68
2022/05/13 02:18:43;;;;;;;6.00;1.92;;;;;;;19.12;50.38;100811.50;4160810;28;20071;-68
2022/05/13 02:20:47;;;;;;;3.88;1.73;;;;;;;19.13;49.95;100808.00;4154332;28;20445;-68
2022/05/13 02:22:50;;;;;;;4.30;1.90;;;;;;;19.09;50.22;100822.09;4159718;28;20034;-68
2022/05/13 02:24:53;;;;;;;4.25;1.70;;;;;;;19.06;50.37;100823.00;4160101;28;20033;-68
2022/05/13 02:26:55;;;;;;;6.10;2.25;;;;;;;19.05;51.34;100825.69;4159138;28;20495;-68
2022/05/13 02:29:01;;;;;;;5.53;1.90;;;;;;;19.04;51.25;100819.53;4161753;28;20037;-68
2022/05/13 02:31:05;;;;;;;4.63;1.60;;;;;;;19.00;52.06;100812.56;4155798;28;20045;-68
2022/05/13 02:33:08;;;;;;;3.65;1.80;;;;;;;18.94;51.53;100821.44;4148835;28;20038;-68
2022/05/13 02:35:11;;;;;;;9.30;2.10;;;;;;;18.89;50.65;100828.53;4162610;28;20041;-68
2022/05/13 02:37:14;;;;;;;6.07;1.70;;;;;;;18.87;51.05;100829.47;4162842;28;20050;-68
2022/05/13 02:39:17;;;;;;;3.15;1.42;;;;;;;18.79;51.01;100826.88;4160329;28;20418;-68
2022/05/13 02:41:20;;;;;;;7.53;1.85;;;;;;;18.78;52.02;100831.28;4156017;28;20084;-68
2022/05/13 02:43:23;;;;;;;5.65;1.98;;;;;;;18.79;51.99;100826.88;4152439;28;20044;-68
2022/05/13 02:45:27;;;;;;;5.68;1.83;;;;;;;18.79;51.75;100822.50;4157149;28;20491;-68
2022/05/13 02:47:30;;;;;;;4.65;2.05;;;;;;;18.75;51.93;100828.69;4156454;28;20041;-68
2022/05/13 02:49:33;;;;;;;6.57;2.28;;;;;;;18.77;51.33;100820.78;4161910;28;20136;-68
2022/05/13 02:51:35;;;;;;;7.60;2.15;;;;;;;18.75;51.70;100822.53;4161808;28;20088;-68
2022/05/13 02:53:38;;;;;;;4.68;1.67;;;;;;;18.76;51.37;100826.94;4169690;28;20041;-68
2022/05/13 02:55:42;;;;;;;5.53;2.40;;;;;;;18.75;51.39;100820.78;4145836;28;20054;-68
2022/05/13 02:57:45;;;;;;;3.83;1.80;;;;;;;18.77;50.68;100818.13;4162724;28;20061;-68
2022/05/13 02:59:48;;;;;;;7.75;2.10;;;;;;;18.78;51.04;100823.38;4156000;28;20030;-68
2022/05/13 03:01:54;;;;;;;8.77;2.08;;;;;;;18.82;50.90;100825.09;4156401;28;20041;-68
2022/05/13 03:03:57;;;;;;;4.13;1.60;;;;;;;18.79;50.45;100827.78;4156415;28;20034;-68
2022/05/13 03:06:00;;;;;;;5.20;2.10;;;;;;;18.77;50.92;100826.91;4161231;28;20083;-68
2022/05/13 03:08:03;;;;;;;4.18;1.40;;;;;;;18.74;51.40;100826.09;4162067;28;20041;-68
2022/05/13 03:10:08;;;;;;;5.40;2.05;;;;;;;18.75;51.61;100839.22;4162238;28;20491;-68
2022/05/13 03:12:12;;;;;;;3.92;1.85;;;;;;;18.72;51.99;100839.28;4158291;28;20071;-68
2022/05/13 03:14:15;;;;;;;4.17;1.67;;;;;;;18.67;51.50;100838.44;4155358;28;20045;-68
2022/05/13 03:16:23;;;;;;;6.50;1.90;;;;;;;18.67;51.44;100834.09;4161511;28;20288;-68
2022/05/13 03:18:28;;;;;;;5.38;1.63;;;;;;;18.68;52.05;100834.94;4148770;28;20068;-68
2022/05/13 03:20:31;;;;;;;6.70;1.85;;;;;;;18.64;52.32;100835.88;4161591;28;20042;-69
2022/05/13 03:22:35;;;;;;;3.92;1.83;;;;;;;18.66;51.76;100834.06;4161716;28;20455;-68
2022/05/13 03:24:37;;;;;;;6.15;2.00;;;;;;;18.66;51.92;100839.34;4157614;28;20045;-68
2022/05/13 03:26:46;;;;;;;6.63;1.80;;;;;;;18.67;51.91;100841.97;4158125;28;20498;-68
2022/05/13 03:28:49;;;;;;;7.88;1.75;;;;;;;18.66;52.08;100836.69;4156867;28;20081;-68
2022/05/13 03:30:56;;;;;;;6.50;2.47;;;;;;;18.69;51.95;100835.78;4159555;28;20045;-68
2022/05/13 03:32:59;;;;;;;6.03;1.80;;;;;;;18.69;51.44;100833.16;4160003;28;20040;-68
2022/05/13 03:35:05;;;;;;;7.80;1.90;;;;;;;18.68;51.87;100827.03;4161878;28;20060;-68
2022/05/13 03:37:08;;;;;;;7.38;2.00;;;;;;;18.62;51.69;100829.75;4158623;28;20069;-68
2022/05/13 03:39:10;;;;;;;5.70;2.13;;;;;;;18.55;52.46;100830.72;4158270;28;20056;-68
2022/05/13 03:41:14;;;;;;;5.00;1.98;;;;;;;18.50;51.73;100833.44;4145729;28;20128;-68
2022/05/13 03:43:18;;;;;;;6.85;2.15;;;;;;;18.46;52.11;100832.56;4161004;28;20064;-68
2022/05/13 03:45:21;;;;;;;6.43;1.95;;;;;;;18.41;51.80;100839.69;4149896;28;20057;-68
2022/05/13 03:47:24;;;;;;;7.70;2.30;;;;;;;18.38;52.07;100847.59;4160463;28;20128;-68
2022/05/13 03:49:27;;;;;;;7.35;2.05;;;;;;;18.37;52.20;100853.75;4156664;28;20044;-68
2022/05/13 03:51:32;;;;;;;6.78;2.00;;;;;;;18.39;52.34;100849.34;4157639;28;20037;-68
2022/05/13 03:53:34;;;;;;;;;;;;;;;18.20;52.72;100850.44;4141160;28;20034;-68
2022/05/13 03:55:37;;;;;;;3.58;1.70;;;;;;;18.26;52.99;100858.25;4159279;28;19924;-68
2022/05/13 03:57:40;;;;;;;5.97;1.83;;;;;;;18.30;52.72;100849.44;4162303;28;20113;-68
2022/05/13 03:59:46;;;;;;;8.77;2.13;;;;;;;18.30;52.46;100850.31;4161851;28;20037;-68
2022/05/13 04:01:50;;;;;;;5.60;2.10;;;;;;;18.28;53.16;100843.31;4162561;28;20559;-68
2022/05/13 04:03:52;;;;;;;9.88;1.88;;;;;;;18.24;53.32;100847.75;4157418;28;20288;-68
2022/05/13 04:10:38;;;;;;;6.10;1.67;;;;;;;18.07;54.15;100862.84;4162808;28;20045;-68
2022/05/13 04:17:22;;;;;;;4.85;2.00;;;;;;;18.09;54.13;100864.59;4166614;28;20048;-68
2022/05/13 04:19:26;;;;;;;5.95;2.05;;;;;;;18.14;53.99;100861.91;4164001;28;20044;-68
2022/05/13 04:21:30;;;;;;;;;;;;;;;17.98;54.29;100858.56;4157717;28;20041;-68
2022/05/13 04:23:35;;;;;;;4.50;2.28;;;;;;;18.06;53.96;100874.25;4162221;28;19925;-68
2022/05/13 04:25:38;;;;;;;7.65;2.08;;;;;;;18.06;54.01;100884.78;4159287;28;20100;-68
2022/05/13 04:27:41;;;;;;;9.40;2.13;;;;;;;18.10;53.51;100879.47;4164597;28;20048;-68
2022/05/13 04:29:44;;;;;;;7.57;2.20;;;;;;;18.09;53.33;100869.84;4161906;28;20038;-68
2022/05/13 04:31:48;;;;;;;4.78;1.60;;;;;;;18.09;53.83;100885.63;4156981;28;20453;-68
2022/05/13 04:33:52;;;;;;;4.82;1.90;;;;;;;18.10;54.43;100882.09;4157734;28;20486;-68
2022/05/13 04:35:55;;;;;;;6.07;2.42;;;;;;;18.11;54.15;100873.31;4157096;28;20557;-68
2022/05/13 04:38:00;;;;;;;5.93;2.10;;;;;;;18.10;54.19;100876.84;4147731;28;20050;-68
2022/05/13 04:40:05;;;;;;;5.60;2.15;;;;;;;18.12;54.33;100877.72;4160379;28;20050;-68
2022/05/13 04:44:30;;;;;;;8.52;2.25;;;;;;;18.11;54.58;100880.38;4159915;28;20136;-68
2022/05/13 04:46:33;;;;;;;7.30;1.83;;;;;;;18.12;53.97;100882.97;4164708;28;20507;-68
2022/05/13 04:48:35;;;;;;;6.47;1.90;;;;;;;18.10;54.49;100886.50;4166171;28;20041;-68
2022/05/13 04:50:39;;;;;;;7.38;2.10;;;;;;;18.09;54.58;100880.38;4164494;28;20136;-68
2022/05/13 04:52:42;;;;;;;4.78;1.67;;;;;;;18.09;53.83;100879.50;4166056;28;20442;-68
2022/05/13 04:54:45;;;;;;;8.43;2.42;;;;;;;18.11;53.97;100883.00;4165467;28;20120;-68
2022/05/13 04:56:49;;;;;;;5.10;2.00;;;;;;;18.13;53.43;100884.69;4166024;28;20034;-68
2022/05/13 04:58:54;;;;;;;6.10;2.10;;;;;;;18.14;53.80;100885.59;4148303;28;20042;-68
2022/05/13 05:00:58;;;;;;;7.85;2.30;;;;;;;18.11;54.55;100889.13;4165823;28;20053;-68
2022/05/13 05:03:01;;;;;;;;;;;;;;;17.92;55.49;100890.19;4166548;28;20120;-68
2022/05/13 05:05:05;;;;;;;5.93;2.00;;;;;;;17.97;55.12;100891.00;4164760;28;19921;-68
2022/05/13 05:07:08;;;;;;;9.83;2.23;;;;;;;17.97;55.52;100891.00;4165969;28;20071;-68
2022/05/13 05:09:10;;;;;;;7.20;2.45;;;;;;;18.01;55.24;100897.13;4163983;28;20665;-68
2022/05/13 05:11:14;;;;;;;5.85;2.05;;;;;;;17.91;54.72;100901.59;4148583;28;20508;-68
2022/05/13 05:13:20;;;;;;;4.28;1.88;;;;;;;17.78;53.33;100891.16;4149343;28;20049;-68
2022/05/13 05:15:24;;;;;;;6.40;2.08;;;;;;;17.69;53.52;100907.00;4149545;28;20117;-68
2022/05/13 05:17:27;;;;;;;4.10;2.05;;;;;;;17.62;52.93;100894.78;4148100;28;20060;-68
2022/05/13 05:19:31;;;;;;;8.68;2.20;;;;;;;17.61;52.55;100901.81;4149233;28;20052;-67
2022/05/13 05:21:34;;;;;;;6.68;2.00;;;;;;;17.62;52.34;100894.78;4148996;28;20495;-68
2022/05/13 05:23:39;;;;;;;5.50;1.70;;;;;;;17.72;52.46;100906.97;4149000;28;20400;-68
2022/05/13 05:25:43;;;;;;;;;;;;;;;17.57;52.38;100901.84;4149613;28;20525;-68
2022/05/13 05:27:46;;;;;;;4.85;2.03;;;;;;;17.62;53.16;100900.03;4149444;28;19925;-68
2022/05/13 05:29:50;;;;;;;4.38;1.98;;;;;;;17.67;52.49;100906.16;4148820;28;20452;-69
2022/05/13 05:31:54;;;;;;;6.03;2.15;;;;;;;17.65;52.53;100902.63;4149224;28;20072;-68
2022/05/13 05:33:57;;;;;;;4.38;1.50;;;;;;;17.62;52.99;100910.56;4149030;28;20038;-68
2022/05/13 05:35:59;;;;;;;7.32;1.90;;;;;;;17.63;52.75;100913.16;4149275;28;20038;-68
2022/05/13 05:38:03;;;;;;;3.45;1.55;;;;;;;17.67;52.64;100916.66;4153242;28;20052;-68
2022/05/13 05:40:09;;;;;;;7.03;2.03;;;;;;;17.75;52.08;100927.97;4165293;28;20398;-68
2022/05/13 05:42:12;;;;;;;4.85;1.95;;;;;;;17.82;51.93;100922.69;4165695;28;20060;-68
2022/05/13 05:44:15;;;;;;;6.72;1.85;;;;;;;17.94;51.47;100933.97;4165346;28;20042;-68
2022/05/13 05:46:19;;;;;;;3.95;1.98;;;;;;;18.07;51.33;100929.50;4162673;28;20037;-68
2022/05/13 05:48:23;;;;;;;4.80;1.90;;;;;;;18.11;51.37;100933.84;4142395;28;20056;-68
2022/05/13 05:50:26;;;;;;;8.55;2.00;;;;;;;18.14;51.52;100932.94;4148525;28;20514;-68
2022/05/13 05:52:29;;;;;;;3.97;2.10;;;;;;;18.25;50.96;100943.38;4148799;28;20073;-68
2022/05/13 05:59:13;;;;;;;4.22;1.70;;;;;;;18.05;50.68;100949.69;4147378;28;20046;-68
2022/05/13 06:01:16;;;;;;;5.43;2.38;;;;;;;18.06;50.31;100956.72;4163497;28;20045;-68
2022/05/13 06:03:20;;;;;;;6.70;2.22;;;;;;;18.12;50.35;100946.13;4164927;28;20033;-68
2022/05/13 06:05:24;;;;;;;6.63;1.98;;;;;;;18.14;50.21;100962.75;4164869;28;20042;-68
2022/05/13 06:07:27;;;;;;;9.63;2.63;;;;;;;18.09;49.93;100959.31;4161634;28;20120;-68
2022/05/13 06:09:30;;;;;;;10.02;2.40;;;;;;;18.14;49.78;100962.75;4130862;28;20057;-68
2022/05/13 06:11:33;;;;;;;5.25;1.90;;;;;;;18.17;50.05;100966.28;4148414;28;20100;-68
2022/05/13 06:13:36;;;;;;;9.27;2.70;;;;;;;18.40;49.76;100963.38;4147294;28;20052;-68
2022/05/13 06:15:39;;;;;;;7.00;2.10;;;;;;;18.45;49.36;100970.34;4161168;28;20045;-68
2022/05/13 06:17:44;;;;;;;8.43;1.92;;;;;;;18.70;47.44;100972.72;4163487;28;20041;-68
2022/05/13 06:19:48;;;;;;;9.65;2.13;;;;;;;18.64;47.52;100978.06;4163297;28;20037;-68
2022/05/13 06:21:51;;;;;;;5.00;1.90;;;;;;;18.44;48.20;100980.91;4163228;28;20047;-68
2022/05/13 06:23:54;;;;;;;5.07;1.88;;;;;;;18.42;48.76;100983.56;4163476;28;20263;-68
2022/05/13 06:25:57;;;;;;;8.15;1.65;;;;;;;18.45;48.57;100986.16;4164673;28;20045;-68
2022/05/13 06:28:01;;;;;;;4.90;2.20;;;;;;;18.57;48.65;100992.19;4162852;28;20120;-68
2022/05/13 06:30:05;;;;;;;9.68;2.20;;;;;;;18.60;48.60;100987.78;4130708;28;20084;-68
2022/05/13 06:32:10;;;;;;;4.05;1.80;;;;;;;18.78;48.30;100991.97;4148233;28;20057;-68
2022/05/13 06:34:14;;;;;;;8.63;2.23;;;;;;;18.89;46.41;100993.63;4130620;28;20486;-68
2022/05/13 06:36:18;;;;;;;5.90;2.55;;;;;;;18.55;47.72;101002.75;4148318;28;20071;-68
2022/05/13 06:38:25;;;;;;;10.05;2.25;;;;;;;18.44;48.25;101001.97;4148184;28;20479;-68
2022/05/13 06:40:27;;;;;;;5.95;1.83;;;;;;;18.53;48.12;101003.63;4162885;28;20103;-68
2022/05/13 06:42:31;;;;;;;7.72;2.35;;;;;;;18.64;48.45;101009.66;4154237;28;20041;-68
2022/05/13 06:44:37;;;;;;;10.15;2.53;;;;;;;18.77;48.12;101006.00;4164502;28;20041;-68
2022/05/13 06:46:39;;;;;;;7.72;2.25;;;;;;;18.92;48.21;101009.41;4164354;28;20419;-67
2022/05/13 06:48:42;;;;;;;8.95;2.72;;;;;;;19.06;47.95;101012.75;4164360;28;20044;-68
2022/05/13 06:50:46;;;;;;;8.90;3.22;;;;;;;19.28;46.89;101013.34;4157126;28;20550;-68
2022/05/13 06:52:50;;;;;;;8.25;3.00;;;;;;;19.34;46.54;101017.69;4157657;28;20033;-68
2022/05/13 06:54:53;;;;;;;9.95;3.05;;;;;;;19.36;46.36;101006.22;4164180;28;20034;-68
2022/05/13 06:56:56;;;;;;;8.55;2.60;;;;;;;19.49;46.36;101006.94;4163268;28;20657;-68
2022/05/13 06:58:59;;;;;;;10.18;3.05;;;;;;;19.49;46.14;101011.31;4164290;28;20042;-68
2022/05/13 07:01:02;;;;;;;12.90;4.15;;;;;;;19.45;45.38;101013.13;4164030;28;20046;-68
2022/05/13 07:03:06;;;;;;;5.68;1.90;;;;;;;19.35;44.98;101008.88;4164162;28;20045;-68
2022/05/13 07:05:10;;;;;;;9.30;2.17;;;;;;;19.22;45.82;101013.44;4162908;28;20045;-68
2022/05/13 07:07:14;;;;;;;14.38;2.63;;;;;;;19.23;45.44;101022.19;4153286;28;20099;-68
2022/05/13 07:09:18;;;;;;;10.15;2.63;;;;;;;19.24;45.61;101016.06;4147796;28;20045;-68
2022/05/13 07:11:21;;;;;;;6.63;2.03;;;;;;;19.16;45.83;101024.06;4147450;28;20045;-68
2022/05/13 07:13:24;;;;;;;6.95;2.20;;;;;;;19.09;46.81;101012.72;4146637;28;20523;-68
2022/05/13 07:15:27;;;;;;;6.15;1.92;;;;;;;19.15;46.63;101023.16;4147737;28;20037;-68
2022/05/13 07:17:32;;;;;;;5.75;2.35;;;;;;;19.23;46.72;101014.28;4147703;28;20042;-68
2022/05/13 07:19:34;;;;;;;10.52;2.17;;;;;;;19.25;46.96;101015.16;4147802;28;20045;-68
2022/05/13 07:21:37;;;;;;;6.38;1.83;;;;;;;19.25;47.10;101012.53;4159386;28;20551;-68
2022/05/13 07:23:41;;;;;;;5.70;1.63;;;;;;;19.33;46.68;101015.91;4163624;28;20510;-68
2022/05/13 07:25:45;;;;;;;6.15;1.75;;;;;;;19.43;45.80;101001.72;4162136;28;20792;-68
2022/05/13 07:27:48;;;;;;;10.32;2.65;;;;;;;19.53;45.83;101008.59;4159443;28;20045;-68
2022/05/13 07:29:51;;;;;;;5.03;1.73;;;;;;;19.61;45.90;101015.53;4163555;28;20049;-68
2022/05/13 07:31:54;;;;;;;5.50;1.83;;;;;;;19.75;44.23;101021.50;4163993;28;20455;-68
2022/05/13 07:33:57;;;;;;;6.95;2.00;;;;;;;19.67;44.43;101026.88;4164750;28;20041;-67
2022/05/13 07:36:00;;;;;;;9.20;2.60;;;;;;;19.67;44.16;101033.94;4167198;28;20466;-68
2022/05/13 07:38:03;;;;;;;4.55;1.75;;;;;;;19.26;45.84;101046.78;4167240;28;20042;-68
2022/05/13 07:42:29;;;;;;;10.70;2.17;;;;;;;19.01;46.37;101043.53;4150920;28;20045;-68
2022/05/13 07:44:32;;;;;;;5.45;1.90;;;;;;;19.03;46.69;101044.41;4150790;28;20121;-68
2022/05/13 07:46:35;;;;;;;8.00;2.15;;;;;;;19.13;46.21;101045.19;4150800;28;20096;-68
2022/05/13 07:48:41;;;;;;;4.68;2.10;;;;;;;19.24;46.60;101037.13;4149604;28;20518;-68
2022/05/13 07:50:44;;;;;;;8.00;2.42;;;;;;;19.36;45.15;101032.59;4165556;28;20054;-68
2022/05/13 07:52:47;;;;;;;12.13;2.10;;;;;;;19.61;43.65;101045.44;4150675;28;20052;-67
2022/05/13 07:54:50;;;;;;;17.42;2.00;;;;;;;19.46;43.70;101038.59;4150455;28;20042;-68
2022/05/13 07:56:53;;;;;;;5.57;1.90;;;;;;;19.68;42.91;101033.03;4165515;28;20041;-68
2022/05/13 07:59:00;;;;;;;4.30;1.50;;;;;;;19.48;44.22;101033.31;4154291;28;20533;-68
2022/05/13 08:01:04;;;;;;;4.00;1.65;;;;;;;19.52;44.92;101035.91;4150047;28;20038;-68
2022/05/13 08:03:09;;;;;;;6.50;1.80;;;;;;;19.49;44.86;101028.03;4150423;28;20049;-68
2022/05/13 08:05:11;;;;;;;6.72;2.20;;;;;;;19.64;44.55;101033.97;4155764;28;20037;-67
2022/05/13 08:07:15;;;;;;;3.67;1.65;;;;;;;19.79;43.99;101038.19;4162600;28;20125;-68
2022/05/13 08:09:19;;;;;;;9.88;2.65;;;;;;;19.90;43.29;101032.75;4166282;28;20045;-67
2022/05/13 08:11:22;;;;;;;13.40;2.67;;;;;;;19.91;42.69;101035.34;4159729;28;20030;-67
2022/05/13 08:13:26;;;;;;;5.53;2.08;;;;;;;19.83;43.42;101035.47;4166554;28;20042;-67
2022/05/13 08:15:41;;;;;;;5.63;1.52;;;;;;;19.91;43.60;101030.09;4159545;28;20042;-67
2022/05/13 08:17:44;;;;;;;4.88;1.63;;;;;;;19.93;43.30;101033.59;4164417;28;20060;-67
2022/05/13 08:19:47;;;;;;;8.55;1.73;;;;;;;19.92;43.46;101030.94;4166078;28;20041;-67
2022/05/13 08:21:49;;;;;;;8.55;2.28;;;;;;;20.12;42.59;101033.28;4165070;28;20449;-67
2022/05/13 08:23:53;;;;;;;12.85;2.00;;;;;;;20.14;42.61;101036.78;4165565;28;20096;-67
2022/05/13 08:25:55;;;;;;;7.95;2.30;;;;;;;20.19;42.41;101040.19;4166234;28;20411;-67
2022/05/13 08:27:59;;;;;;;9.43;2.33;;;;;;;20.18;41.64;101044.63;4165201;28;20573;-67
2022/05/13 08:30:02;;;;;;;10.02;2.53;;;;;;;20.21;41.79;101034.00;4165906;28;20069;-68
2022/05/13 08:32:07;;;;;;;8.93;2.28;;;;;;;20.15;42.15;101039.41;4166334;28;20068;-68
2022/05/13 08:34:10;;;;;;;;;;;;;;;20.08;42.70;101039.50;4165807;28;20037;-68
2022/05/13 08:36:12;;;;;;;7.80;2.00;;;;;;;20.43;41.46;101038.94;4154887;28;19921;-63
2022/05/13 08:38:17;;;;;;;7.60;2.03;;;;;;;20.35;41.61;101046.97;4158592;28;20096;-66
2022/05/13 08:40:32;;;;;;;10.30;2.30;;;;;;;20.58;40.39;101040.41;4149325;28;20050;-67
2022/05/13 08:42:39;;;;;;;9.65;2.15;;;;;;;20.42;41.33;101037.19;4149948;28;20049;-67
2022/05/13 08:44:42;;;;;;;8.05;2.00;;;;;;;20.23;41.55;101034.84;4151085;28;20057;-67
2022/05/13 08:46:57;;;;;;;9.68;1.70;;;;;;;20.30;43.58;101037.41;4161829;28;20395;-64
2022/05/13 08:49:35;;;;;;;9.00;1.90;;;;;;;20.42;44.11;101031.91;4164005;28;20095;-64
2022/05/13 08:51:50;;;;;;;9.77;2.63;;;;;;;20.60;47.36;101029.81;4165746;28;20045;-65
2022/05/13 08:53:57;;;;;;;10.70;2.65;;;;;;;20.82;45.91;101023.28;4162567;28;20163;-66
2022/05/13 08:56:06;;;;;;;6.90;2.28;;;;;;;21.12;41.52;101023.56;4161991;28;20083;-63
2022/05/13 08:58:13;;;;;;;6.10;1.58;;;;;;;21.17;41.44;101026.09;4160156;28;20048;-67
2022/05/13 09:00:24;;;;;;;4.75;1.83;;;;;;;21.09;42.06;101023.63;4151537;28;20492;-64
2022/05/13 09:02:31;;;;;;;5.72;1.50;;;;;;;21.10;42.81;101020.94;4165764;28;20045;-64
2022/05/13 09:04:38;;;;;;;6.60;2.17;;;;;;;21.09;40.60;101019.19;4165919;28;20045;-64
2022/05/13 09:06:47;;;;;;;9.30;2.47;;;;;;;21.11;40.25;101019.16;4161731;28;20041;-64
2022/05/13 09:08:50;;;;;;;7.22;1.98;;;;;;;21.06;40.63;101013.97;4165631;28;20517;-66
2022/05/13 09:11:08;;;;;;;6.40;1.85;;;;;;;21.01;41.63;101031.72;4162590;28;20033;-65
2022/05/13 09:13:18;;;;;;;6.28;1.60;;;;;;;21.05;42.24;101027.22;4164427;28;20071;-65
2022/05/13 09:15:29;;;;;;;4.18;1.60;;;;;;;21.08;41.03;101022.75;4161122;28;20041;-62
2022/05/13 09:17:35;;;;;;;7.32;1.50;;;;;;;21.21;42.34;101028.66;4162619;28;20043;-62
2022/05/13 09:19:53;;;;;;;7.25;2.00;;;;;;;21.39;39.90;101032.69;4158652;28;20045;-59
2022/05/13 09:21:56;;;;;;;6.68;1.83;;;;;;;21.50;39.86;101024.50;4140998;28;20049;-59
2022/05/13 09:23:59;;;;;;;8.98;2.40;;;;;;;21.66;39.74;101027.72;4161488;28;20033;-59
2022/05/13 09:26:06;;;;;;;6.72;1.90;;;;;;;21.61;39.22;101011.94;4162504;28;20121;-59
2022/05/13 09:28:12;;;;;;;7.68;1.70;;;;;;;21.47;39.62;101029.88;4156065;28;20045;-60
2022/05/13 09:30:20;;;;;;;7.63;1.48;;;;;;;21.43;40.10;101028.19;4164071;28;20048;-60
2022/05/13 09:32:25;;;;;;;5.20;1.58;;;;;;;21.45;39.58;101027.25;4152186;28;20042;-60
2022/05/13 09:34:34;;;;;;;4.85;1.70;;;;;;;21.49;39.54;101027.19;4151597;28;20030;-60
2022/05/13 09:36:41;;;;;;;5.03;1.55;;;;;;;21.52;38.67;101025.38;4164405;28;20116;-60
2022/05/13 09:38:47;;;;;;;7.70;1.63;;;;;;;21.53;38.71;101013.88;4163740;28;20057;-60
2022/05/13 09:41:01;;;;;;;5.68;1.95;;;;;;;21.72;38.39;101014.34;4153100;28;20037;-60
2022/05/13 09:43:04;;;;;;;5.47;1.70;;;;;;;21.69;38.19;101016.19;4151279;28;20092;-60
2022/05/13 09:45:22;;;;;;;6.38;1.55;;;;;;;21.90;37.25;101021.00;4148758;28;20427;-60
2022/05/13 09:47:30;;;;;;;5.13;1.42;;;;;;;21.84;37.58;101017.59;4151451;28;20124;-60
2022/05/13 09:49:47;;;;;;;6.93;1.55;;;;;;;21.84;37.02;101015.81;4155472;28;20129;-60
2022/05/13 09:51:57;;;;;;;6.25;1.50;;;;;;;21.68;37.56;101006.50;4154289;28;20495;-60
2022/05/13 09:54:06;;;;;;;4.13;1.40;;;;;;;21.77;37.10;101001.00;4156931;28;20407;-58
2022/05/13 09:56:14;;;;;;;3.22;1.13;;;;;;;21.78;37.26;101013.31;4150942;28;20052;-60
2022/05/13 09:58:19;;;;;;;6.70;1.60;;;;;;;21.81;37.07;101005.31;4153183;28;20372;-60
2022/05/13 10:00:25;;;;;;;4.95;1.30;;;;;;;21.75;36.74;101005.47;4155695;28;20395;-60
2022/05/13 10:02:34;;;;;;;5.88;1.75;;;;;;;21.74;36.61;101001.97;4136157;28;20077;-60
2022/05/13 10:04:38;;;;;;;5.50;1.58;;;;;;;21.93;36.67;100997.09;4162032;28;20049;-58